Time;durP1;ratioP1;P1;durP2;ratioP2;P2;SDS_P1;SDS_P2;PMS_P1;PMS_P2;Temp;Humidity;BMP_temperature;BMP_pressure;BME280_temperature;BME280_humidity;BME280_pressure;Samples;Min_cycle;Max_cycle;Signal;HPM_P1;HPM_P2
2022/03/06 00:02:01;;;;;;;20.63;13.45;;;1.00;99.90;;;;;;4944888;28;20055;-61
2022/03/06 00:04:27;;;;;;;18.08;13.40;;;1.00;99.90;;;;;;4944341;28;20075;-62
2022/03/06 00:06:53;;;;;;;19.15;13.48;;;1.00;99.90;;;;;;4934332;28;20158;-61
2022/03/06 00:09:19;;;;;;;19.60;13.50;;;1.00;99.90;;;;;;4910808;28;20077;-62
2022/03/06 00:11:44;;;;;;;18.02;13.25;;;1.00;99.90;;;;;;4942712;28;20039;-62
2022/03/06 00:14:10;;;;;;;20.73;13.55;;;1.00;99.90;;;;;;4942791;28;22042;-62
2022/03/06 00:16:36;;;;;;;21.63;14.30;;;1.00;99.90;;;;;;4943562;28;20560;-62
2022/03/06 00:19:02;;;;;;;18.75;13.90;;;1.10;99.90;;;;;;4942551;28;20051;-62
2022/03/06 00:21:28;;;;;;;18.77;12.98;;;1.10;99.90;;;;;;4942291;28;20105;-62
2022/03/06 00:23:54;;;;;;;18.20;12.90;;;1.00;99.90;;;;;;4896573;29;20047;-62
2022/03/06 00:26:19;;;;;;;19.52;13.32;;;1.10;99.90;;;;;;4942789;28;20047;-62
2022/03/06 00:28:45;;;;;;;17.63;12.48;;;1.10;99.90;;;;;;4938247;28;20138;-62
2022/03/06 00:31:12;;;;;;;19.17;13.02;;;1.10;99.90;;;;;;4942247;28;20054;-62
2022/03/06 00:33:38;;;;;;;18.27;12.48;;;1.10;99.90;;;;;;4944173;28;20421;-61
2022/03/06 00:36:05;;;;;;;15.82;11.75;;;1.10;99.90;;;;;;4944744;28;20047;-62
2022/03/06 00:38:30;;;;;;;15.98;11.70;;;1.10;99.90;;;;;;4942832;28;20052;-62
2022/03/06 00:40:56;;;;;;;17.45;11.98;;;1.10;99.90;;;;;;4938334;28;20081;-62
2022/03/06 00:43:22;;;;;;;16.65;11.32;;;1.10;99.90;;;;;;4941243;28;20055;-62
2022/03/06 00:45:48;;;;;;;15.48;10.43;;;1.20;99.90;;;;;;4944949;28;20059;-62
2022/03/06 00:48:14;;;;;;;17.42;11.00;;;1.20;99.90;;;;;;4914779;28;20065;-60
2022/03/06 00:50:40;;;;;;;15.07;10.45;;;1.30;99.90;;;;;;4956664;28;20822;-62
2022/03/06 00:53:06;;;;;;;15.07;9.75;;;1.20;99.90;;;;;;4941596;28;20047;-62
2022/03/06 00:55:33;;;;;;;14.90;10.30;;;1.20;99.90;;;;;;4942686;28;20430;-62
2022/03/06 00:58:05;;;;;;;13.77;9.27;;;1.30;99.90;;;;;;4926808;28;20058;-61
2022/03/06 01:00:43;;;;;;;15.60;9.90;;;1.30;99.90;;;;;;4943597;28;20397;-62
2022/03/06 01:03:11;;;;;;;14.45;9.48;;;1.30;99.90;;;;;;4941492;28;20094;-61
2022/03/06 01:05:37;;;;;;;14.30;8.98;;;1.30;99.90;;;;;;4926392;28;20051;-62
2022/03/06 01:08:04;;;;;;;14.45;9.45;;;1.30;99.90;;;;;;4942680;28;20121;-62
2022/03/06 01:10:31;;;;;;;12.48;8.93;;;1.30;99.90;;;;;;4941282;28;20097;-61
2022/03/06 01:12:58;;;;;;;13.55;8.18;;;1.30;99.90;;;;;;4901235;28;20461;-62
2022/03/06 01:15:24;;;;;;;13.13;8.73;;;1.30;99.90;;;;;;4945059;28;20047;-62
2022/03/06 01:17:51;;;;;;;12.55;8.93;;;1.40;99.90;;;;;;4944830;28;20168;-62
2022/03/06 01:20:17;;;;;;;12.02;9.15;;;1.40;99.90;;;;;;4942036;28;20050;-62
2022/03/06 01:22:47;;;;;;;13.25;8.93;;;1.30;99.90;;;;;;4941209;28;20056;-62
2022/03/06 01:25:13;;;;;;;13.82;8.02;;;1.40;99.90;;;;;;4932081;29;20078;-62
2022/03/06 01:27:39;;;;;;;15.18;8.32;;;1.30;99.90;;;;;;4925412;29;20429;-62
2022/03/06 01:30:08;;;;;;;12.90;8.43;;;1.40;99.90;;;;;;4940219;28;20142;-62
2022/03/06 01:32:34;;;;;;;14.02;8.68;;;1.30;99.90;;;;;;4925933;28;20502;-62
2022/03/06 01:35:00;;;;;;;12.88;8.27;;;1.30;99.90;;;;;;4924915;28;20051;-62
2022/03/06 01:37:26;;;;;;;12.32;8.80;;;1.30;99.90;;;;;;4943989;28;20050;-62
2022/03/06 01:39:53;;;;;;;14.18;8.52;;;1.30;99.90;;;;;;4942004;28;20063;-61
2022/03/06 01:42:19;;;;;;;13.32;9.18;;;1.30;99.90;;;;;;4941176;28;20051;-62
2022/03/06 01:44:52;;;;;;;14.75;8.75;;;1.30;99.90;;;;;;4939711;28;20051;-62
2022/03/06 01:47:35;;;;;;;11.20;8.27;;;1.30;99.90;;;;;;4942363;28;20043;-62
2022/03/06 01:50:04;;;;;;;12.68;8.20;;;1.30;99.90;;;;;;4941642;28;20043;-61
2022/03/06 01:52:30;;;;;;;12.50;8.02;;;1.30;99.90;;;;;;4942353;28;20055;-61
2022/03/06 01:54:56;;;;;;;13.18;7.93;;;1.30;99.90;;;;;;4936728;28;20051;-61
2022/03/06 01:57:22;;;;;;;12.77;7.68;;;1.40;99.90;;;;;;4908154;29;20054;-61
2022/03/06 01:59:48;;;;;;;11.80;7.32;;;1.30;99.90;;;;;;4931300;28;20050;-62
2022/03/06 02:02:15;;;;;;;11.07;6.93;;;1.30;99.90;;;;;;4940337;28;20046;-61
2022/03/06 02:04:41;;;;;;;9.55;6.80;;;1.30;99.90;;;;;;4941492;28;20055;-62
2022/03/06 02:07:07;;;;;;;9.05;6.30;;;1.40;99.90;;;;;;4909801;28;20135;-62
2022/03/06 02:09:33;;;;;;;11.02;6.38;;;1.40;99.90;;;;;;4913789;28;20043;-62
2022/03/06 02:14:43;;;;;;;10.13;6.35;;;1.40;99.90;;;;;;4937075;28;20506;-62
2022/03/06 02:17:09;;;;;;;10.77;6.35;;;1.40;99.90;;;;;;4939070;28;20055;-61
2022/03/06 02:19:58;;;;;;;9.20;6.40;;;1.40;99.90;;;;;;4924174;28;20047;-62
2022/03/06 02:22:29;;;;;;;9.50;6.38;;;1.40;99.90;;;;;;4942784;28;20113;-62
2022/03/06 02:24:56;;;;;;;10.20;6.38;;;1.40;99.90;;;;;;4922519;28;20146;-62
2022/03/06 02:27:22;;;;;;;8.20;5.78;;;1.40;99.90;;;;;;4940875;28;20051;-62
2022/03/06 02:29:49;;;;;;;9.10;6.55;;;1.50;99.90;;;;;;4928256;28;20589;-61
2022/03/06 02:32:18;;;;;;;12.77;6.03;;;1.50;99.90;;;;;;4940819;28;20072;-62
2022/03/06 02:34:46;;;;;;;9.43;6.43;;;1.50;99.90;;;;;;4939182;28;20476;-62
2022/03/06 02:37:13;;;;;;;8.77;5.88;;;1.50;99.90;;;;;;4932288;28;20051;-62
2022/03/06 02:39:39;;;;;;;10.07;6.28;;;1.50;99.90;;;;;;4943115;28;20043;-62
2022/03/06 02:42:05;;;;;;;9.65;6.93;;;1.40;99.90;;;;;;4940878;28;20140;-61
2022/03/06 02:44:32;;;;;;;11.75;6.80;;;1.50;99.90;;;;;;4940719;28;20050;-62
2022/03/06 02:46:57;;;;;;;11.73;6.80;;;1.50;99.90;;;;;;4942093;28;20047;-62
2022/03/06 02:49:23;;;;;;;10.77;6.30;;;1.50;99.90;;;;;;4939719;28;20043;-62
2022/03/06 02:51:49;;;;;;;10.15;6.63;;;1.50;99.90;;;;;;4940191;28;20066;-61
2022/03/06 02:54:23;;;;;;;10.75;6.40;;;1.50;99.90;;;;;;4942147;28;20597;-61
2022/03/06 02:56:49;;;;;;;10.38;6.90;;;1.50;99.90;;;;;;4934567;29;20668;-61
2022/03/06 02:59:16;;;;;;;13.98;7.15;;;1.50;99.90;;;;;;4929489;28;20043;-61
2022/03/06 03:01:42;;;;;;;10.80;6.72;;;1.50;99.90;;;;;;4941767;28;20122;-61
2022/03/06 03:04:09;;;;;;;11.07;6.50;;;1.50;99.90;;;;;;4939035;28;20134;-62
2022/03/06 03:06:35;;;;;;;13.02;6.60;;;1.40;99.90;;;;;;4941239;28;20051;-61
2022/03/06 03:09:03;;;;;;;11.75;7.03;;;1.40;99.90;;;;;;4944281;28;20127;-61
2022/03/06 03:11:31;;;;;;;9.98;7.35;;;1.40;99.90;;;;;;4945802;28;20043;-62
2022/03/06 03:14:01;;;;;;;9.70;6.53;;;1.40;99.90;;;;;;4942060;28;20051;-62
2022/03/06 03:16:27;;;;;;;13.02;7.15;;;1.40;99.90;;;;;;4944217;28;20126;-61
2022/03/06 03:18:53;;;;;;;11.40;6.40;;;1.40;99.90;;;;;;4928896;28;20542;-62
2022/03/06 03:21:19;;;;;;;10.32;7.07;;;1.40;99.90;;;;;;4943063;28;20408;-62
2022/03/06 03:23:44;;;;;;;14.50;7.05;;;1.40;99.90;;;;;;4945232;28;20035;-61
2022/03/06 03:26:10;;;;;;;13.95;7.15;;;1.30;99.90;;;;;;4943777;28;20055;-62
2022/03/06 03:28:36;;;;;;;9.25;7.13;;;1.40;99.90;;;;;;4942177;28;20051;-61
2022/03/06 03:31:02;;;;;;;14.50;7.60;;;1.40;99.90;;;;;;4944057;28;20079;-61
2022/03/06 03:33:28;;;;;;;12.07;7.00;;;1.30;99.90;;;;;;4944384;28;20142;-61
2022/03/06 03:35:54;;;;;;;10.60;7.07;;;1.30;99.90;;;;;;4911788;28;20054;-61
2022/03/06 03:38:20;;;;;;;11.95;7.38;;;1.30;99.90;;;;;;4943247;28;20046;-61
2022/03/06 03:40:47;;;;;;;10.30;7.28;;;1.30;99.90;;;;;;4944556;28;20502;-62
2022/03/06 03:43:13;;;;;;;14.75;7.70;;;1.30;99.90;;;;;;4944917;28;20047;-60
2022/03/06 03:45:39;;;;;;;13.88;7.35;;;1.20;99.90;;;;;;4944224;28;20051;-61
2022/03/06 03:48:04;;;;;;;12.85;7.18;;;1.20;99.90;;;;;;4944549;28;20051;-62
2022/03/06 03:50:30;;;;;;;13.90;7.60;;;1.20;99.90;;;;;;4943718;28;20043;-62
2022/03/06 03:52:56;;;;;;;13.32;7.20;;;1.20;99.90;;;;;;4942811;28;20408;-62
2022/03/06 03:55:22;;;;;;;13.15;6.53;;;1.10;99.90;;;;;;4943011;28;20082;-62
2022/03/06 03:57:48;;;;;;;13.50;7.00;;;1.10;99.90;;;;;;4943587;28;20181;-61
2022/03/06 04:00:14;;;;;;;11.25;6.30;;;1.10;99.90;;;;;;4958005;28;20112;-62
2022/03/06 04:02:40;;;;;;;14.32;7.13;;;1.10;99.90;;;;;;4944118;28;20054;-62
2022/03/06 04:05:06;;;;;;;12.05;7.03;;;1.10;99.90;;;;;;4943481;28;20074;-60
2022/03/06 04:07:32;;;;;;;11.10;6.97;;;1.00;99.90;;;;;;4943687;28;20138;-62
2022/03/06 04:09:57;;;;;;;8.70;6.68;;;1.00;99.90;;;;;;4924476;28;20089;-62
2022/03/06 04:12:23;;;;;;;11.35;6.63;;;1.00;99.90;;;;;;4942610;28;20039;-62
2022/03/06 04:14:49;;;;;;;12.35;6.70;;;0.90;99.90;;;;;;4943977;28;20122;-62
2022/03/06 04:17:15;;;;;;;12.00;6.75;;;0.90;99.90;;;;;;4944044;28;20050;-62
2022/03/06 04:19:40;;;;;;;11.10;7.10;;;0.90;99.90;;;;;;4943580;28;20125;-62
2022/03/06 04:22:06;;;;;;;12.57;7.00;;;0.90;99.90;;;;;;4942351;28;20059;-62
2022/03/06 04:24:32;;;;;;;10.75;7.07;;;0.80;99.90;;;;;;4945804;28;20047;-62
2022/03/06 04:26:58;;;;;;;13.35;7.25;;;0.80;99.90;;;;;;4943061;28;20106;-62
2022/03/06 04:29:24;;;;;;;11.50;6.72;;;0.80;99.90;;;;;;4925910;28;20051;-62
2022/03/06 04:31:50;;;;;;;11.63;6.80;;;0.80;99.90;;;;;;4942416;28;20108;-62
2022/03/06 04:34:16;;;;;;;10.00;6.28;;;0.70;99.90;;;;;;4941798;28;20052;-62
2022/03/06 04:36:42;;;;;;;10.13;6.45;;;0.70;99.90;;;;;;4942751;28;20046;-62
2022/03/06 04:39:08;;;;;;;10.98;6.93;;;0.70;99.90;;;;;;4926296;29;20047;-62
2022/03/06 04:41:34;;;;;;;9.68;6.00;;;0.70;99.90;;;;;;4940857;28;20086;-62
2022/03/06 04:44:00;;;;;;;12.48;6.50;;;0.70;99.90;;;;;;4940766;28;20047;-62
2022/03/06 04:46:25;;;;;;;10.75;6.65;;;0.60;99.90;;;;;;4940449;28;20051;-61
2022/03/06 04:48:51;;;;;;;13.02;6.88;;;0.60;99.90;;;;;;4941896;28;20082;-62
2022/03/06 04:51:17;;;;;;;9.75;6.78;;;0.60;99.90;;;;;;4942736;28;20497;-62
2022/03/06 04:53:43;;;;;;;10.65;6.40;;;0.50;99.90;;;;;;4932593;28;20051;-62
2022/03/06 04:56:10;;;;;;;11.73;6.57;;;0.50;99.90;;;;;;4943353;28;20042;-62
2022/03/06 04:58:36;;;;;;;10.75;6.43;;;0.50;99.90;;;;;;4928309;28;20055;-61
2022/03/06 05:01:03;;;;;;;9.93;6.30;;;0.40;99.90;;;;;;4942145;28;20881;-62
2022/03/06 05:03:29;;;;;;;10.13;6.78;;;0.40;99.90;;;;;;4940503;28;20129;-62
2022/03/06 05:05:55;;;;;;;13.05;6.53;;;0.40;99.90;;;;;;4944884;28;20461;-62
2022/03/06 05:08:21;;;;;;;11.80;6.68;;;0.40;99.90;;;;;;4938357;28;20051;-62
2022/03/06 05:10:47;;;;;;;8.20;6.07;;;0.30;99.90;;;;;;4942587;28;20051;-62
2022/03/06 05:13:13;;;;;;;9.13;6.03;;;0.30;99.90;;;;;;4941611;28;20134;-62
2022/03/06 05:15:40;;;;;;;12.35;6.68;;;0.30;99.90;;;;;;4931931;28;20053;-61
2022/03/06 05:18:07;;;;;;;15.73;7.32;;;0.20;99.90;;;;;;4916703;28;20105;-62
2022/03/06 05:20:32;;;;;;;13.13;5.95;;;0.20;99.90;;;;;;4931209;28;20098;-62
2022/03/06 05:22:58;;;;;;;12.13;6.63;;;0.20;99.90;;;;;;4944371;28;20055;-62
2022/03/06 05:25:24;;;;;;;13.80;6.57;;;0.10;99.90;;;;;;4939148;28;20047;-61
2022/03/06 05:27:50;;;;;;;10.75;5.88;;;0.10;99.90;;;;;;4942422;28;20047;-61
2022/03/06 05:30:15;;;;;;;12.75;6.40;;;0.10;99.90;;;;;;4940940;28;20047;-62
2022/03/06 05:32:43;;;;;;;9.93;6.15;;;0.10;99.90;;;;;;4942165;28;20780;-61
2022/03/06 05:35:10;;;;;;;12.40;5.78;;;0.00;99.90;;;;;;4943073;28;20098;-62
2022/03/06 05:37:37;;;;;;;9.95;5.72;;;0.00;99.90;;;;;;4942855;28;20565;-62
2022/03/06 05:40:05;;;;;;;9.13;6.38;;;0.00;99.90;;;;;;4939358;28;20059;-62
2022/03/06 05:42:30;;;;;;;10.75;6.10;;;-0.10;99.90;;;;;;4944708;28;20489;-61
2022/03/06 05:44:56;;;;;;;11.55;6.03;;;-0.10;99.90;;;;;;4923141;28;20050;-62
2022/03/06 05:47:22;;;;;;;12.57;6.07;;;-0.10;99.90;;;;;;4941457;28;20066;-62
2022/03/06 05:49:48;;;;;;;10.63;6.00;;;-0.20;99.90;;;;;;4940222;28;20047;-62
2022/03/06 05:52:14;;;;;;;9.00;5.85;;;-0.20;99.90;;;;;;4940694;28;20083;-62
2022/03/06 05:54:40;;;;;;;13.23;6.35;;;-0.20;99.90;;;;;;4953576;28;20082;-62
2022/03/06 05:57:06;;;;;;;12.40;5.53;;;-0.20;99.90;;;;;;4938529;28;21269;-61
2022/03/06 05:59:32;;;;;;;13.32;6.25;;;-0.20;99.90;;;;;;4939856;28;20050;-62
2022/03/06 06:01:58;;;;;;;7.90;5.60;;;-0.20;99.90;;;;;;4937151;28;20055;-61
2022/03/06 06:04:24;;;;;;;12.13;6.20;;;-0.30;99.90;;;;;;4940405;28;20050;-62
2022/03/06 06:06:50;;;;;;;8.55;5.55;;;-0.30;99.90;;;;;;4940772;28;20114;-61
2022/03/06 06:09:16;;;;;;;7.63;5.63;;;-0.30;99.90;;;;;;4942532;28;20039;-62
2022/03/06 06:11:42;;;;;;;6.88;5.30;;;-0.30;99.90;;;;;;4928057;29;20043;-62
2022/03/06 06:14:07;;;;;;;8.63;5.50;;;-0.30;99.90;;;;;;4924057;28;20043;-62
2022/03/06 06:16:33;;;;;;;7.78;5.32;;;-0.30;99.90;;;;;;4939838;28;20051;-62
2022/03/06 06:18:59;;;;;;;9.55;5.30;;;-0.40;99.90;;;;;;4941570;28;20043;-62
2022/03/06 06:21:26;;;;;;;8.43;5.45;;;-0.30;99.90;;;;;;4939971;28;20723;-62
2022/03/06 06:23:52;;;;;;;10.85;5.50;;;-0.30;99.90;;;;;;4939676;28;20054;-61
2022/03/06 06:26:18;;;;;;;6.72;4.57;;;-0.40;99.90;;;;;;4924906;28;20043;-62
2022/03/06 06:28:44;;;;;;;8.95;4.35;;;-0.40;99.90;;;;;;4938964;28;20179;-62
2022/03/06 06:31:10;;;;;;;6.20;4.45;;;-0.40;99.90;;;;;;4923756;29;20080;-62
2022/03/06 06:33:35;;;;;;;7.43;4.45;;;-0.30;99.90;;;;;;4938761;28;20074;-62
2022/03/06 06:36:02;;;;;;;7.00;4.40;;;-0.30;99.90;;;;;;4932607;28;20051;-62
2022/03/06 06:38:28;;;;;;;5.95;3.90;;;-0.40;99.90;;;;;;4939115;28;20563;-62
2022/03/06 06:40:54;;;;;;;6.22;3.80;;;-0.30;99.90;;;;;;4938445;28;20051;-61
2022/03/06 06:43:21;;;;;;;7.07;3.42;;;-0.30;99.90;;;;;;4939427;28;20047;-62
2022/03/06 06:45:47;;;;;;;4.82;3.47;;;-0.40;99.90;;;;;;4939837;28;20460;-61
2022/03/06 06:48:13;;;;;;;5.65;3.65;;;-0.30;99.90;;;;;;4938553;28;20771;-61
2022/03/06 06:50:39;;;;;;;7.07;3.45;;;-0.30;99.90;;;;;;4938504;28;20134;-62
2022/03/06 06:53:05;;;;;;;5.28;3.47;;;-0.30;99.90;;;;;;4943131;28;20043;-62
2022/03/06 06:55:31;;;;;;;3.50;3.15;;;-0.30;99.90;;;;;;4937905;28;20039;-62
2022/03/06 06:57:57;;;;;;;4.88;3.40;;;-0.30;99.90;;;;;;4924950;28;20087;-62
2022/03/06 07:00:22;;;;;;;5.50;3.50;;;-0.30;99.90;;;;;;4940388;28;20055;-62
2022/03/06 07:02:48;;;;;;;6.10;3.33;;;-0.30;99.90;;;;;;4941419;28;20051;-62
2022/03/06 07:05:14;;;;;;;5.35;3.35;;;-0.20;99.90;;;;;;4936804;28;20043;-62
2022/03/06 07:07:40;;;;;;;5.75;3.00;;;-0.20;99.90;;;;;;4939425;28;20052;-62
2022/03/06 07:10:07;;;;;;;5.13;3.33;;;-0.20;99.90;;;;;;4942381;28;20668;-62
2022/03/06 07:12:44;;;;;;;4.75;3.08;;;-0.10;99.90;;;;;;4941632;28;20249;-62
2022/03/06 07:15:12;;;;;;;4.10;3.50;;;0.00;99.90;;;;;;4938678;28;20105;-62
2022/03/06 07:17:37;;;;;;;6.78;3.50;;;0.00;99.90;;;;;;4940816;29;20828;-62
2022/03/06 07:20:04;;;;;;;6.32;3.47;;;0.00;99.90;;;;;;4938189;28;20055;-62
2022/03/06 07:22:30;;;;;;;7.47;3.88;;;0.10;99.90;;;;;;4922847;28;20074;-62
2022/03/06 07:24:56;;;;;;;4.47;3.50;;;0.10;99.90;;;;;;4925306;28;20055;-62
2022/03/06 07:27:21;;;;;;;6.35;3.60;;;0.20;99.90;;;;;;4924373;29;20075;-62
2022/03/06 07:29:47;;;;;;;3.75;3.22;;;0.30;99.90;;;;;;4939400;28;20058;-62
2022/03/06 07:32:13;;;;;;;4.00;3.30;;;0.30;99.90;;;;;;4941029;28;20135;-61
2022/03/06 07:34:39;;;;;;;5.15;3.30;;;0.30;99.90;;;;;;4924214;29;20051;-62
2022/03/06 07:37:05;;;;;;;6.00;3.38;;;0.30;99.90;;;;;;4940875;28;20050;-62
2022/03/06 07:39:31;;;;;;;7.38;3.45;;;0.40;99.90;;;;;;4930961;29;20054;-62
2022/03/06 07:41:56;;;;;;;4.85;3.40;;;0.50;99.90;;;;;;4941223;28;20051;-61
2022/03/06 07:44:22;;;;;;;7.70;3.60;;;0.50;99.90;;;;;;4940903;28;20911;-62
2022/03/06 07:46:48;;;;;;;5.25;3.35;;;0.50;99.90;;;;;;4939355;28;20055;-62
2022/03/06 07:49:14;;;;;;;5.80;3.30;;;0.60;99.90;;;;;;4940376;28;20208;-62
2022/03/06 07:51:40;;;;;;;4.35;3.22;;;0.60;99.90;;;;;;4941578;28;20043;-62
2022/03/06 07:54:07;;;;;;;4.82;3.30;;;0.70;99.90;;;;;;4924273;28;20073;-62
2022/03/06 07:56:34;;;;;;;3.67;3.25;;;0.70;99.90;;;;;;4941916;28;20392;-62
2022/03/06 07:58:59;;;;;;;5.22;3.33;;;0.80;99.90;;;;;;4940192;28;20054;-62
2022/03/06 08:01:25;;;;;;;5.22;3.13;;;0.80;99.90;;;;;;4943928;28;20047;-62
2022/03/06 08:03:51;;;;;;;5.47;3.92;;;0.80;99.90;;;;;;4926219;28;20061;-62
2022/03/06 08:06:16;;;;;;;4.75;3.10;;;0.90;99.90;;;;;;4943714;28;20051;-61
2022/03/06 08:08:43;;;;;;;4.38;3.30;;;1.00;99.90;;;;;;4942544;28;20047;-62
2022/03/06 08:11:09;;;;;;;4.18;3.30;;;1.10;99.90;;;;;;4927555;29;20121;-62
2022/03/06 08:13:34;;;;;;;5.07;3.55;;;1.20;99.90;;;;;;4938806;28;21893;-62
2022/03/06 08:16:00;;;;;;;6.13;3.08;;;1.20;99.90;;;;;;4941924;28;20057;-62
2022/03/06 08:18:26;;;;;;;4.63;3.00;;;1.30;99.90;;;;;;4940958;28;20394;-62
2022/03/06 08:20:52;;;;;;;6.28;3.10;;;1.30;99.90;;;;;;4922682;28;20150;-62
2022/03/06 08:23:17;;;;;;;8.85;3.80;;;1.40;99.90;;;;;;4942077;28;20062;-62
2022/03/06 08:25:43;;;;;;;5.28;3.03;;;1.50;99.90;;;;;;4944168;28;20049;-62
2022/03/06 08:28:09;;;;;;;4.50;3.20;;;1.60;99.90;;;;;;4941562;28;20047;-63
2022/03/06 08:30:35;;;;;;;4.78;2.90;;;1.70;99.90;;;;;;4941775;28;20078;-62
2022/03/06 08:33:01;;;;;;;3.55;2.90;;;1.80;99.90;;;;;;4951274;28;20066;-61
2022/03/06 08:35:27;;;;;;;5.13;3.13;;;2.00;99.90;;;;;;4945599;28;20099;-62
2022/03/06 08:37:52;;;;;;;4.97;3.00;;;2.10;99.90;;;;;;4942366;28;20561;-62
2022/03/06 08:40:18;;;;;;;4.97;2.70;;;2.30;99.80;;;;;;4939917;28;20051;-62
2022/03/06 08:42:45;;;;;;;5.32;3.10;;;2.40;98.90;;;;;;4952288;28;20047;-61
2022/03/06 08:45:11;;;;;;;5.93;3.20;;;2.50;98.20;;;;;;4940002;28;20063;-61
2022/03/06 08:47:37;;;;;;;4.20;2.72;;;2.70;97.70;;;;;;4942487;28;20418;-62
2022/03/06 08:50:05;;;;;;;5.47;3.20;;;2.80;97.00;;;;;;4942310;28;20039;-61
2022/03/06 08:52:31;;;;;;;5.93;3.03;;;2.90;96.00;;;;;;4943618;29;20047;-60
2022/03/06 08:54:56;;;;;;;5.25;3.08;;;3.00;95.60;;;;;;4943706;28;20058;-61
2022/03/06 08:57:23;;;;;;;5.47;3.00;;;3.00;95.40;;;;;;4945418;28;20058;-61
2022/03/06 08:59:50;;;;;;;4.68;3.28;;;3.20;94.70;;;;;;4944107;28;20086;-61
2022/03/06 09:02:16;;;;;;;6.57;3.40;;;3.30;93.90;;;;;;4942796;28;20110;-61
2022/03/06 09:04:42;;;;;;;3.65;3.00;;;3.30;92.80;;;;;;4944505;28;20050;-60
2022/03/06 09:07:08;;;;;;;7.47;3.78;;;3.40;92.70;;;;;;4945444;28;20058;-61
2022/03/06 09:09:34;;;;;;;6.50;3.42;;;3.50;91.90;;;;;;4943177;28;20481;-60
2022/03/06 09:11:59;;;;;;;6.07;3.20;;;3.60;91.20;;;;;;4944322;29;20043;-61
2022/03/06 09:14:26;;;;;;;5.05;3.20;;;3.70;90.60;;;;;;4943288;29;20057;-59
2022/03/06 09:16:51;;;;;;;6.43;3.47;;;3.70;90.00;;;;;;4941960;28;20502;-60
2022/03/06 09:19:17;;;;;;;9.18;3.65;;;3.80;90.10;;;;;;4944767;28;20043;-61
2022/03/06 09:21:43;;;;;;;6.68;3.05;;;3.90;90.00;;;;;;4939666;28;20062;-61
2022/03/06 09:24:10;;;;;;;6.45;3.40;;;3.90;88.50;;;;;;4942936;28;20043;-61
2022/03/06 09:26:37;;;;;;;4.88;3.05;;;4.00;89.00;;;;;;4928427;29;20623;-60
2022/03/06 09:29:04;;;;;;;6.72;3.45;;;4.10;88.70;;;;;;4944323;28;20074;-61
2022/03/06 09:31:30;;;;;;;6.10;3.22;;;4.10;87.70;;;;;;4943756;28;20055;-61
2022/03/06 09:33:56;;;;;;;5.65;3.47;;;4.20;86.90;;;;;;4942706;28;20056;-61
2022/03/06 09:36:22;;;;;;;5.43;3.63;;;4.30;86.80;;;;;;4941829;28;20050;-60
2022/03/06 09:38:48;;;;;;;5.50;3.45;;;4.30;85.60;;;;;;4938900;28;20059;-61
2022/03/06 09:41:21;;;;;;;5.18;3.70;;;4.40;85.40;;;;;;4940395;28;20085;-61
2022/03/06 09:43:49;;;;;;;4.57;3.17;;;4.40;84.60;;;;;;4924632;28;20525;-61
2022/03/06 09:46:19;;;;;;;4.90;3.10;;;4.50;84.30;;;;;;4940327;28;20078;-61
2022/03/06 09:48:45;;;;;;;8.70;3.35;;;4.60;84.30;;;;;;4942007;28;20066;-60
2022/03/06 09:51:11;;;;;;;6.20;3.20;;;4.70;84.40;;;;;;4942985;28;20047;-60
2022/03/06 09:53:37;;;;;;;6.93;3.50;;;4.80;83.60;;;;;;4941942;28;20047;-60
2022/03/06 09:56:03;;;;;;;5.93;3.42;;;4.80;83.50;;;;;;4942080;28;20362;-61
2022/03/06 09:58:29;;;;;;;6.00;3.20;;;4.90;83.40;;;;;;4941581;28;20156;-61
2022/03/06 10:00:57;;;;;;;9.10;3.60;;;5.00;82.90;;;;;;4941120;28;20129;-61
2022/03/06 10:03:23;;;;;;;4.85;2.92;;;5.10;82.80;;;;;;4940468;28;20178;-62
2022/03/06 10:05:50;;;;;;;4.68;2.70;;;5.20;82.40;;;;;;4954075;28;20418;-63
2022/03/06 10:08:27;;;;;;;5.65;3.25;;;5.30;81.50;;;;;;4930957;28;20090;-62
2022/03/06 10:10:57;;;;;;;6.05;3.08;;;5.30;80.50;;;;;;4940790;28;20474;-61
2022/03/06 10:13:25;;;;;;;8.10;3.42;;;5.40;80.70;;;;;;4939402;28;20109;-61
2022/03/06 10:16:08;;;;;;;5.75;2.97;;;5.50;81.30;;;;;;4938025;28;20078;-61
2022/03/06 10:18:42;;;;;;;5.88;3.20;;;5.60;81.40;;;;;;4940832;28;20054;-62
2022/03/06 10:21:15;;;;;;;4.85;2.95;;;5.80;81.10;;;;;;4942508;28;20667;-62
2022/03/06 10:23:42;;;;;;;4.75;2.80;;;5.80;79.60;;;;;;4943039;28;20043;-61
2022/03/06 10:26:12;;;;;;;5.00;2.80;;;5.80;79.00;;;;;;4942058;28;20174;-62
2022/03/06 10:29:01;;;;;;;8.70;3.55;;;5.90;79.20;;;;;;4939660;28;20520;-62
2022/03/06 10:31:35;;;;;;;5.03;3.35;;;5.90;78.70;;;;;;4942006;28;20047;-62
2022/03/06 10:34:12;;;;;;;4.28;3.05;;;6.00;79.10;;;;;;4940526;28;20615;-60
2022/03/06 10:36:46;;;;;;;4.47;3.17;;;6.00;78.80;;;;;;4937915;28;20682;-62
2022/03/06 10:39:22;;;;;;;4.65;3.10;;;6.10;78.90;;;;;;4938831;28;20442;-61
2022/03/06 10:41:53;;;;;;;5.47;3.45;;;6.30;79.00;;;;;;4940819;28;20055;-61
2022/03/06 10:44:22;;;;;;;6.47;3.08;;;6.40;78.60;;;;;;4939956;28;20401;-62
2022/03/06 10:47:04;;;;;;;5.10;3.10;;;6.40;78.20;;;;;;4939682;28;20198;-61
2022/03/06 10:49:32;;;;;;;6.30;3.28;;;6.50;77.40;;;;;;4935909;28;20446;-62
2022/03/06 10:52:14;;;;;;;7.72;3.50;;;6.50;77.10;;;;;;4942536;28;20475;-62
2022/03/06 10:54:51;;;;;;;7.53;3.23;;;6.50;77.10;;;;;;4939527;28;20405;-62
2022/03/06 10:57:17;;;;;;;9.73;3.58;;;6.60;76.80;;;;;;4939771;28;20086;-62
2022/03/06 10:59:44;;;;;;;5.10;3.25;;;6.60;76.80;;;;;;4937380;28;20075;-62
2022/03/06 11:02:12;;;;;;;3.90;3.15;;;6.70;76.70;;;;;;4939522;28;20051;-62
2022/03/06 11:04:38;;;;;;;7.72;3.47;;;6.70;76.80;;;;;;4939235;28;20511;-62
2022/03/06 11:07:05;;;;;;;5.60;3.10;;;6.70;77.00;;;;;;4935138;28;20094;-62
2022/03/06 11:09:31;;;;;;;6.20;3.22;;;6.80;77.10;;;;;;4936752;28;20047;-62
2022/03/06 11:11:57;;;;;;;6.13;3.50;;;6.90;77.00;;;;;;4923497;28;20055;-62
2022/03/06 11:14:24;;;;;;;4.70;3.20;;;6.90;76.10;;;;;;4920173;28;20418;-62
2022/03/06 11:16:50;;;;;;;7.95;3.92;;;6.80;76.10;;;;;;4937969;28;20817;-62
2022/03/06 11:19:16;;;;;;;4.55;2.95;;;6.90;76.50;;;;;;4936437;28;20055;-62
2022/03/06 11:21:44;;;;;;;5.20;3.42;;;6.90;75.70;;;;;;4938344;28;20367;-61
2022/03/06 11:24:20;;;;;;;4.95;3.35;;;6.90;76.00;;;;;;4936452;28;20063;-63
2022/03/06 11:27:08;;;;;;;8.18;4.00;;;7.00;75.70;;;;;;4942852;28;20162;-63
2022/03/06 11:30:00;;;;;;;7.53;3.42;;;7.00;75.50;;;;;;4940405;28;20051;-63
2022/03/06 11:32:35;;;;;;;5.50;3.63;;;7.20;75.90;;;;;;4929877;28;20070;-63
2022/03/06 11:35:06;;;;;;;5.53;3.45;;;7.20;75.80;;;;;;4943744;28;20071;-63
2022/03/06 11:37:56;;;;;;;7.40;3.85;;;7.20;76.20;;;;;;4933907;28;20047;-63
2022/03/06 11:40:45;;;;;;;7.15;3.17;;;7.30;76.60;;;;;;4917588;28;20059;-63
2022/03/06 11:43:32;;;;;;;7.15;3.35;;;7.40;75.80;;;;;;4927939;28;20051;-62
2022/03/06 11:46:09;;;;;;;5.97;3.30;;;7.40;75.20;;;;;;4942928;28;20054;-62
2022/03/06 11:48:35;;;;;;;3.90;2.75;;;7.50;76.20;;;;;;4942113;28;20082;-63
2022/03/06 11:51:19;;;;;;;6.63;3.13;;;7.50;75.80;;;;;;4936509;28;20051;-63
2022/03/06 11:54:06;;;;;;;5.13;3.45;;;7.50;75.50;;;;;;4942335;28;20049;-63
2022/03/06 11:56:32;;;;;;;8.57;3.10;;;7.40;75.50;;;;;;4941607;28;20857;-63
2022/03/06 11:59:05;;;;;;;6.68;2.90;;;7.40;76.10;;;;;;4931215;28;20146;-63
2022/03/06 12:01:44;;;;;;;5.05;2.90;;;7.40;75.90;;;;;;4938889;28;20494;-63
2022/03/06 12:04:12;;;;;;;4.53;2.80;;;7.30;75.60;;;;;;4942466;28;20050;-63
2022/03/06 12:06:52;;;;;;;5.07;2.85;;;7.20;75.90;;;;;;4946583;28;20054;-63
2022/03/06 12:09:21;;;;;;;4.60;2.90;;;7.20;76.50;;;;;;4952654;28;20059;-63
2022/03/06 12:11:50;;;;;;;5.80;3.22;;;7.20;76.70;;;;;;4942710;28;20061;-63
2022/03/06 12:14:23;;;;;;;9.70;3.30;;;7.20;76.60;;;;;;4942011;28;20057;-63
2022/03/06 12:17:01;;;;;;;6.20;3.53;;;7.20;76.70;;;;;;4942914;28;20138;-63
2022/03/06 12:19:31;;;;;;;5.43;3.22;;;7.20;76.50;;;;;;4943311;28;20047;-63
2022/03/06 12:22:11;;;;;;;6.90;3.42;;;7.20;76.60;;;;;;4944931;28;20043;-63
2022/03/06 12:24:38;;;;;;;5.93;3.20;;;7.30;77.50;;;;;;4943678;28;20050;-63
2022/03/06 12:27:15;;;;;;;5.00;2.90;;;7.40;77.60;;;;;;4941634;28;20051;-63
2022/03/06 12:29:47;;;;;;;6.70;2.78;;;7.50;77.40;;;;;;4923701;28;20051;-63
2022/03/06 12:32:25;;;;;;;7.57;3.55;;;7.60;77.40;;;;;;4939492;28;20051;-63
2022/03/06 12:35:02;;;;;;;6.55;3.15;;;7.70;76.90;;;;;;4940776;28;20059;-63
2022/03/06 12:37:37;;;;;;;5.65;2.95;;;7.70;77.20;;;;;;4943815;28;20142;-63
2022/03/06 12:40:06;;;;;;;5.03;3.00;;;7.70;76.70;;;;;;4943424;28;20043;-63
2022/03/06 12:42:34;;;;;;;4.47;2.90;;;7.70;77.00;;;;;;4944745;29;20126;-62
2022/03/06 12:45:04;;;;;;;7.70;2.90;;;7.70;76.80;;;;;;4929625;29;20047;-63
2022/03/06 12:47:31;;;;;;;10.52;3.00;;;7.80;76.90;;;;;;4945139;28;20058;-63
2022/03/06 12:49:59;;;;;;;5.95;3.13;;;7.80;76.60;;;;;;4928826;29;20167;-63
2022/03/06 12:52:28;;;;;;;4.95;2.60;;;7.80;76.60;;;;;;4946209;28;20130;-63
2022/03/06 12:54:56;;;;;;;5.13;2.55;;;8.00;76.20;;;;;;4946467;28;20125;-63
2022/03/06 12:57:28;;;;;;;4.40;2.78;;;8.10;76.10;;;;;;4927545;28;20417;-63